RYR3XJ EGCC-EBCI
Flight info
| Callsign | RYR3XJ |
|---|---|
| Flight time | 1h 8m |
| Altitude | 29000 |
| Route | SANBA N859 HON L15 BIG Q70 VABIK/N0353F230 Q70 KOK |
| Aircraft | B738/M-SDE2E3FGHIRWXY/LB1 |
Departure
| Time | 2026-05-04 16:36 |
|---|---|
| Airport | Manchester Airport (EGCC) |
Arrival
| Time | 2026-05-04 17:45 |
|---|---|
| Airport | Brussels South Charleroi Airport (EBCI) |
| Time | Latitude | Longitude | Altitude | Speed | Heading |
|---|---|---|---|---|---|
| 2026-05-04 16:01 | 53.36144 | -2.26685 | 254 ft | 0 kts | 327° |
| 2026-05-04 16:21 | 53.36118 | -2.26649 | 254 ft | 4 kts | 303° |
| 2026-05-04 16:22 | 53.36110 | -2.26566 | 254 ft | 4 kts | 251° |
| 2026-05-04 16:22 | 53.36138 | -2.26489 | 254 ft | 1 kts | 231° |
| 2026-05-04 16:24 | 53.36136 | -2.26492 | 254 ft | 1 kts | 231° |
| 2026-05-04 16:25 | 53.36034 | -2.26580 | 255 ft | 9 kts | 175° |
| 2026-05-04 16:26 | 53.35974 | -2.26665 | 255 ft | 3 kts | 231° |
| 2026-05-04 16:26 | 53.35961 | -2.26692 | 255 ft | 0 kts | 226° |
| 2026-05-04 16:27 | 53.35953 | -2.26702 | 255 ft | 4 kts | 215° |
| 2026-05-04 16:28 | 53.35937 | -2.26707 | 255 ft | 0 kts | 182° |
| 2026-05-04 16:29 | 53.35934 | -2.26708 | 255 ft | 4 kts | 182° |
| 2026-05-04 16:30 | 53.35736 | -2.26656 | 268 ft | 10 kts | 170° |
| 2026-05-04 16:31 | 53.35506 | -2.26757 | 254 ft | 27 kts | 232° |
| 2026-05-04 16:31 | 53.35299 | -2.27187 | 246 ft | 3 kts | 230° |
| 2026-05-04 16:32 | 53.35282 | -2.27222 | 245 ft | 8 kts | 231° |
| 2026-05-04 16:33 | 53.35164 | -2.27464 | 240 ft | 1 kts | 230° |
| 2026-05-04 16:33 | 53.35162 | -2.27468 | 240 ft | 0 kts | 230° |
| 2026-05-04 16:34 | 53.35160 | -2.27473 | 240 ft | 4 kts | 230° |
| 2026-05-04 16:35 | 53.34839 | -2.27672 | 222 ft | 8 kts | 230° |
| 2026-05-04 16:35 | 53.34818 | -2.27716 | 223 ft | 3 kts | 231° |
| 2026-05-04 16:36 | 53.34689 | -2.27982 | 226 ft | 72 kts | 231° |
| 2026-05-04 16:36 | 53.33443 | -2.30580 | 889 ft | 180 kts | 232° |
| 2026-05-04 16:37 | 53.31971 | -2.34257 | 2749 ft | 212 kts | 259° |
| 2026-05-04 16:37 | 53.32123 | -2.36820 | 3154 ft | 230 kts | 287° |
| 2026-05-04 16:37 | 53.32607 | -2.42486 | 4479 ft | 260 kts | 254° |
| 2026-05-04 16:38 | 53.30111 | -2.46695 | 4980 ft | 269 kts | 197° |
| 2026-05-04 16:39 | 53.24808 | -2.44292 | 6236 ft | 274 kts | 152° |
| 2026-05-04 16:39 | 53.21421 | -2.41225 | 8096 ft | 281 kts | 152° |
| 2026-05-04 16:40 | 53.17934 | -2.38076 | 9900 ft | 291 kts | 152° |
| 2026-05-04 16:40 | 53.14178 | -2.34712 | 10808 ft | 329 kts | 152° |
| 2026-05-04 16:41 | 53.10009 | -2.31002 | 12185 ft | 345 kts | 152° |
| 2026-05-04 16:41 | 53.03588 | -2.25315 | 14652 ft | 354 kts | 153° |
| 2026-05-04 16:42 | 52.96977 | -2.19485 | 16938 ft | 363 kts | 153° |
| 2026-05-04 16:43 | 52.92470 | -2.15523 | 18428 ft | 369 kts | 153° |
| 2026-05-04 16:43 | 52.87892 | -2.11509 | 19681 ft | 376 kts | 152° |
| 2026-05-04 16:43 | 52.85600 | -2.09502 | 20305 ft | 379 kts | 152° |
| 2026-05-04 16:44 | 52.76917 | -1.99458 | 22764 ft | 390 kts | 129° |
| 2026-05-04 16:45 | 52.74101 | -1.91698 | 23817 ft | 399 kts | 119° |
| 2026-05-04 16:46 | 52.70240 | -1.79429 | 25257 ft | 406 kts | 118° |
| 2026-05-04 16:46 | 52.67590 | -1.71109 | 26130 ft | 411 kts | 118° |
| 2026-05-04 16:47 | 52.64900 | -1.62771 | 26998 ft | 416 kts | 119° |
| 2026-05-04 16:47 | 52.62153 | -1.54317 | 27850 ft | 421 kts | 119° |
| 2026-05-04 16:48 | 52.57935 | -1.41408 | 28871 ft | 433 kts | 119° |
| 2026-05-04 16:48 | 52.56518 | -1.37084 | 29300 ft | 434 kts | 119° |
| 2026-05-04 16:49 | 52.53625 | -1.28283 | 30086 ft | 438 kts | 119° |
| 2026-05-04 16:49 | 52.50718 | -1.19467 | 30652 ft | 443 kts | 120° |
| 2026-05-04 16:50 | 52.47754 | -1.10516 | 31237 ft | 447 kts | 120° |
| 2026-05-04 16:50 | 52.44796 | -1.01608 | 32007 ft | 445 kts | 120° |
| 2026-05-04 16:51 | 52.41839 | -0.92737 | 32761 ft | 444 kts | 120° |
| 2026-05-04 16:51 | 52.40358 | -0.88307 | 33110 ft | 443 kts | 120° |
| 2026-05-04 16:51 | 52.37890 | -0.80939 | 33856 ft | 439 kts | 120° |
| 2026-05-04 16:52 | 52.34967 | -0.72245 | 34488 ft | 438 kts | 120° |
| 2026-05-04 16:52 | 52.33486 | -0.67851 | 34685 ft | 440 kts | 120° |
| 2026-05-04 16:53 | 52.30510 | -0.59048 | 35225 ft | 440 kts | 120° |
| 2026-05-04 16:53 | 52.26072 | -0.45974 | 35995 ft | 439 kts | 121° |
| 2026-05-04 16:54 | 52.24577 | -0.41586 | 36261 ft | 439 kts | 121° |
| 2026-05-04 16:55 | 52.18615 | -0.24162 | 37172 ft | 440 kts | 121° |
| 2026-05-04 16:55 | 52.15691 | -0.15659 | 37598 ft | 441 kts | 121° |
| 2026-05-04 16:56 | 52.12689 | -0.06960 | 37983 ft | 442 kts | 121° |
| 2026-05-04 16:56 | 52.08178 | 0.06057 | 38528 ft | 444 kts | 121° |
| 2026-05-04 16:57 | 52.06655 | 0.10440 | 38695 ft | 444 kts | 121° |
| 2026-05-04 16:57 | 52.03612 | 0.19166 | 39041 ft | 443 kts | 121° |
| 2026-05-04 16:58 | 51.97458 | 0.36714 | 39048 ft | 449 kts | 121° |
| 2026-05-04 17:00 | 51.88161 | 0.63006 | 39025 ft | 448 kts | 122° |
| 2026-05-04 17:01 | 51.80376 | 0.84815 | 39006 ft | 448 kts | 122° |
| 2026-05-04 17:02 | 51.74150 | 1.02120 | 38996 ft | 445 kts | 122° |
| 2026-05-04 17:03 | 51.69467 | 1.15058 | 38995 ft | 442 kts | 122° |
| 2026-05-04 17:03 | 51.67913 | 1.19335 | 38729 ft | 447 kts | 122° |
| 2026-05-04 17:03 | 51.64774 | 1.27957 | 37725 ft | 442 kts | 123° |
| 2026-05-04 17:04 | 51.61695 | 1.36392 | 36921 ft | 432 kts | 123° |
| 2026-05-04 17:04 | 51.58681 | 1.44618 | 36136 ft | 423 kts | 123° |
| 2026-05-04 17:05 | 51.55717 | 1.52680 | 35371 ft | 416 kts | 124° |
| 2026-05-04 17:05 | 51.52800 | 1.60589 | 34615 ft | 409 kts | 124° |
| 2026-05-04 17:06 | 51.49909 | 1.68400 | 33841 ft | 403 kts | 125° |
| 2026-05-04 17:06 | 51.48489 | 1.72231 | 33413 ft | 400 kts | 124° |
| 2026-05-04 17:07 | 51.45655 | 1.79854 | 32646 ft | 393 kts | 124° |
| 2026-05-04 17:07 | 51.44728 | 1.82344 | 32394 ft | 390 kts | 124° |
| 2026-05-04 17:07 | 51.42891 | 1.87269 | 31913 ft | 386 kts | 124° |
| 2026-05-04 17:07 | 51.41512 | 1.90960 | 31542 ft | 383 kts | 124° |
| 2026-05-04 17:08 | 51.40146 | 1.94612 | 31189 ft | 379 kts | 125° |
| 2026-05-04 17:08 | 51.37458 | 2.01782 | 30503 ft | 374 kts | 125° |
| 2026-05-04 17:08 | 51.36116 | 2.05353 | 30158 ft | 371 kts | 125° |
| 2026-05-04 17:09 | 51.34788 | 2.08881 | 29771 ft | 368 kts | 125° |
| 2026-05-04 17:09 | 51.33487 | 2.12337 | 29408 ft | 364 kts | 125° |
| 2026-05-04 17:09 | 51.32179 | 2.15803 | 29042 ft | 361 kts | 125° |
| 2026-05-04 17:10 | 51.29613 | 2.22595 | 28328 ft | 353 kts | 124° |
| 2026-05-04 17:10 | 51.25847 | 2.32528 | 27275 ft | 345 kts | 124° |
| 2026-05-04 17:11 | 51.24608 | 2.35788 | 26923 ft | 342 kts | 124° |
| 2026-05-04 17:11 | 51.23389 | 2.38989 | 26575 ft | 340 kts | 124° |
| 2026-05-04 17:11 | 51.21240 | 2.45693 | 25913 ft | 338 kts | 117° |
| 2026-05-04 17:12 | 51.20311 | 2.49144 | 25579 ft | 338 kts | 116° |
| 2026-05-04 17:12 | 51.18468 | 2.56089 | 24926 ft | 349 kts | 116° |
| 2026-05-04 17:13 | 51.15545 | 2.66894 | 23830 ft | 353 kts | 116° |
| 2026-05-04 17:14 | 51.12602 | 2.77611 | 22651 ft | 348 kts | 116° |
| 2026-05-04 17:14 | 51.11644 | 2.81084 | 22288 ft | 345 kts | 116° |
| 2026-05-04 17:14 | 51.09711 | 2.88063 | 21583 ft | 340 kts | 116° |
| 2026-05-04 17:15 | 51.08768 | 2.91457 | 21241 ft | 338 kts | 115° |
| 2026-05-04 17:15 | 51.06875 | 2.98263 | 20548 ft | 333 kts | 116° |
| 2026-05-04 17:16 | 51.05005 | 3.04964 | 19870 ft | 330 kts | 115° |
| 2026-05-04 17:16 | 51.02240 | 3.14830 | 18863 ft | 325 kts | 114° |
| 2026-05-04 17:17 | 51.01319 | 3.18108 | 18522 ft | 323 kts | 114° |
| 2026-05-04 17:17 | 50.98580 | 3.27833 | 17429 ft | 319 kts | 114° |
| 2026-05-04 17:18 | 50.97675 | 3.31038 | 17081 ft | 317 kts | 114° |
| 2026-05-04 17:18 | 50.95890 | 3.37347 | 16416 ft | 313 kts | 114° |
| 2026-05-04 17:19 | 50.94114 | 3.43605 | 15760 ft | 310 kts | 114° |
| 2026-05-04 17:19 | 50.92356 | 3.49786 | 15117 ft | 307 kts | 114° |
| 2026-05-04 17:20 | 50.90597 | 3.55953 | 14472 ft | 305 kts | 114° |
| 2026-05-04 17:20 | 50.88855 | 3.62047 | 13838 ft | 303 kts | 115° |
| 2026-05-04 17:20 | 50.87996 | 3.65044 | 13489 ft | 302 kts | 115° |
| 2026-05-04 17:21 | 50.86262 | 3.71083 | 12811 ft | 299 kts | 115° |
| 2026-05-04 17:21 | 50.84553 | 3.77023 | 12173 ft | 296 kts | 114° |
| 2026-05-04 17:22 | 50.83691 | 3.80011 | 11853 ft | 294 kts | 114° |
| 2026-05-04 17:22 | 50.82854 | 3.82912 | 11544 ft | 293 kts | 114° |
| 2026-05-04 17:23 | 50.80324 | 3.91654 | 10619 ft | 289 kts | 114° |
| 2026-05-04 17:23 | 50.79487 | 3.94540 | 10309 ft | 288 kts | 114° |
| 2026-05-04 17:23 | 50.77849 | 4.00177 | 9893 ft | 279 kts | 114° |
| 2026-05-04 17:24 | 50.77037 | 4.02968 | 9579 ft | 278 kts | 114° |
| 2026-05-04 17:24 | 50.74635 | 4.11203 | 8689 ft | 274 kts | 114° |
| 2026-05-04 17:25 | 50.73834 | 4.13941 | 8407 ft | 272 kts | 114° |
| 2026-05-04 17:25 | 50.72262 | 4.19315 | 7831 ft | 269 kts | 114° |
| 2026-05-04 17:26 | 50.70686 | 4.24683 | 7272 ft | 267 kts | 114° |
| 2026-05-04 17:26 | 50.68138 | 4.32403 | 6448 ft | 264 kts | 122° |
| 2026-05-04 17:27 | 50.66092 | 4.37212 | 5865 ft | 263 kts | 123° |
| 2026-05-04 17:27 | 50.64085 | 4.41964 | 5313 ft | 261 kts | 122° |
| 2026-05-04 17:28 | 50.62122 | 4.46655 | 4993 ft | 250 kts | 122° |
| 2026-05-04 17:29 | 50.59395 | 4.53196 | 4687 ft | 226 kts | 122° |
| 2026-05-04 17:29 | 50.56888 | 4.59212 | 4165 ft | 219 kts | 122° |
| 2026-05-04 17:30 | 50.54376 | 4.65201 | 3503 ft | 217 kts | 126° |
| 2026-05-04 17:31 | 50.51778 | 4.66257 | 3107 ft | 206 kts | 213° |
| 2026-05-04 17:31 | 50.50164 | 4.60337 | 2410 ft | 202 kts | 250° |
| 2026-05-04 17:32 | 50.49138 | 4.56265 | 2031 ft | 194 kts | 248° |
| 2026-05-04 17:33 | 50.47584 | 4.50655 | 1353 ft | 180 kts | 239° |
| 2026-05-04 17:33 | 50.47063 | 4.48920 | 990 ft | 173 kts | 246° |
| 2026-05-04 17:34 | 50.45685 | 4.44246 | 762 ft | 162 kts | 243° |
| 2026-05-04 17:34 | 50.45198 | 4.42542 | 1394 ft | 180 kts | 246° |
| 2026-05-04 17:35 | 50.43746 | 4.36720 | 2730 ft | 186 kts | 261° |
| 2026-05-04 17:35 | 50.44876 | 4.33242 | 3029 ft | 226 kts | 330° |
| 2026-05-04 17:35 | 50.46332 | 4.32076 | 2997 ft | 235 kts | 335° |
| 2026-05-04 17:36 | 50.47792 | 4.30982 | 2979 ft | 231 kts | 335° |
| 2026-05-04 17:36 | 50.49278 | 4.30120 | 2977 ft | 227 kts | 354° |
| 2026-05-04 17:36 | 50.50817 | 4.30503 | 2985 ft | 227 kts | 27° |
| 2026-05-04 17:36 | 50.51973 | 4.32147 | 3016 ft | 228 kts | 58° |
| 2026-05-04 17:37 | 50.52699 | 4.34380 | 3004 ft | 231 kts | 64° |
| 2026-05-04 17:37 | 50.53366 | 4.36679 | 3005 ft | 232 kts | 65° |
| 2026-05-04 17:37 | 50.54030 | 4.38994 | 2997 ft | 232 kts | 65° |
| 2026-05-04 17:37 | 50.54691 | 4.41314 | 2997 ft | 231 kts | 65° |
| 2026-05-04 17:38 | 50.55338 | 4.43586 | 2992 ft | 229 kts | 65° |
| 2026-05-04 17:38 | 50.55983 | 4.45859 | 2996 ft | 226 kts | 65° |
| 2026-05-04 17:38 | 50.56620 | 4.48114 | 2993 ft | 225 kts | 65° |
| 2026-05-04 17:38 | 50.57244 | 4.50344 | 3018 ft | 221 kts | 65° |
| 2026-05-04 17:39 | 50.58275 | 4.54044 | 2998 ft | 225 kts | 65° |
| 2026-05-04 17:39 | 50.58905 | 4.56303 | 2997 ft | 222 kts | 65° |
| 2026-05-04 17:39 | 50.59511 | 4.58479 | 2991 ft | 210 kts | 65° |
| 2026-05-04 17:40 | 50.59997 | 4.60589 | 2986 ft | 202 kts | 83° |
| 2026-05-04 17:40 | 50.59626 | 4.62553 | 2986 ft | 188 kts | 131° |
| 2026-05-04 17:40 | 50.58586 | 4.63692 | 3016 ft | 179 kts | 148° |
| 2026-05-04 17:40 | 50.57514 | 4.64671 | 2998 ft | 177 kts | 149° |
| 2026-05-04 17:41 | 50.56457 | 4.65627 | 2988 ft | 174 kts | 150° |
| 2026-05-04 17:41 | 50.55309 | 4.66146 | 3016 ft | 172 kts | 174° |
| 2026-05-04 17:41 | 50.54108 | 4.66116 | 3003 ft | 174 kts | 189° |
| 2026-05-04 17:41 | 50.52964 | 4.65512 | 3004 ft | 174 kts | 208° |
| 2026-05-04 17:42 | 50.51967 | 4.64443 | 3013 ft | 175 kts | 223° |
| 2026-05-04 17:42 | 50.51219 | 4.62909 | 2782 ft | 185 kts | 242° |
| 2026-05-04 17:42 | 50.50639 | 4.61119 | 2538 ft | 183 kts | 245° |
| 2026-05-04 17:42 | 50.50087 | 4.59301 | 2236 ft | 186 kts | 245° |
| 2026-05-04 17:43 | 50.49544 | 4.57493 | 1906 ft | 181 kts | 245° |
| 2026-05-04 17:43 | 50.49036 | 4.55748 | 1700 ft | 173 kts | 246° |
| 2026-05-04 17:43 | 50.48545 | 4.54046 | 1549 ft | 168 kts | 246° |
| 2026-05-04 17:43 | 50.48067 | 4.52395 | 1339 ft | 169 kts | 245° |
| 2026-05-04 17:44 | 50.47584 | 4.50718 | 1142 ft | 166 kts | 244° |
| 2026-05-04 17:44 | 50.47105 | 4.49101 | 957 ft | 159 kts | 242° |
| 2026-05-04 17:44 | 50.46643 | 4.47538 | 720 ft | 156 kts | 242° |
| 2026-05-04 17:44 | 50.46199 | 4.46035 | 591 ft | 134 kts | 247° |
| 2026-05-04 17:45 | 50.45907 | 4.45025 | 592 ft | 66 kts | 245° |
| 2026-05-04 17:45 | 50.45977 | 4.44769 | 595 ft | 27 kts | 4° |
| 2026-05-04 17:45 | 50.46079 | 4.44986 | 595 ft | 25 kts | 65° |
| 2026-05-04 17:45 | 50.46148 | 4.45222 | 598 ft | 17 kts | 66° |
| 2026-05-04 17:46 | 50.46195 | 4.45389 | 597 ft | 16 kts | 66° |
| 2026-05-04 17:46 | 50.46242 | 4.45550 | 599 ft | 16 kts | 65° |
| 2026-05-04 17:46 | 50.46288 | 4.45708 | 596 ft | 17 kts | 65° |
| 2026-05-04 17:46 | 50.46338 | 4.45880 | 596 ft | 17 kts | 65° |
| 2026-05-04 17:47 | 50.46391 | 4.46064 | 592 ft | 20 kts | 66° |
| 2026-05-04 17:47 | 50.46448 | 4.46260 | 590 ft | 20 kts | 65° |
| 2026-05-04 17:47 | 50.46505 | 4.46452 | 588 ft | 19 kts | 65° |
| 2026-05-04 17:47 | 50.46575 | 4.46557 | 590 ft | 12 kts | 354° |
| 2026-05-04 17:48 | 50.46624 | 4.46613 | 589 ft | 9 kts | 64° |
| 2026-05-04 17:48 | 50.46650 | 4.46701 | 589 ft | 9 kts | 65° |
| 2026-05-04 17:48 | 50.46675 | 4.46787 | 589 ft | 9 kts | 66° |
| 2026-05-04 17:48 | 50.46700 | 4.46870 | 589 ft | 8 kts | 65° |
| 2026-05-04 17:49 | 50.46723 | 4.46952 | 588 ft | 8 kts | 65° |
| 2026-05-04 17:49 | 50.46747 | 4.47033 | 587 ft | 8 kts | 66° |
| 2026-05-04 17:49 | 50.46770 | 4.47112 | 588 ft | 8 kts | 64° |
| 2026-05-04 17:49 | 50.46792 | 4.47188 | 588 ft | 8 kts | 65° |
| 2026-05-04 17:50 | 50.46813 | 4.47262 | 587 ft | 7 kts | 66° |
| 2026-05-04 17:50 | 50.46838 | 4.47328 | 586 ft | 7 kts | 38° |
| 2026-05-04 17:50 | 50.46882 | 4.47320 | 583 ft | 7 kts | 336° |
| 2026-05-04 17:50 | 50.46917 | 4.47295 | 584 ft | 3 kts | 335° |
| 2026-05-04 17:51 | 50.46928 | 4.47288 | 584 ft | 0 kts | 335° |